sensor_id;sensor_type;location;lat;lon;timestamp;P1;durP1;ratioP1;P2;durP2;ratioP2
57826;SDS011;43656;57.746;11.780;2023-04-07T00:00:50;4.50;;;2.40;;
57826;SDS011;43656;57.746;11.780;2023-04-07T00:03:16;4.88;;;2.50;;
57826;SDS011;43656;57.746;11.780;2023-04-07T00:05:41;4.22;;;2.75;;
57826;SDS011;43656;57.746;11.780;2023-04-07T00:08:07;5.63;;;2.28;;
57826;SDS011;43656;57.746;11.780;2023-04-07T00:10:32;4.13;;;2.65;;
57826;SDS011;43656;57.746;11.780;2023-04-07T00:12:58;4.90;;;2.42;;
57826;SDS011;43656;57.746;11.780;2023-04-07T00:15:23;5.32;;;2.45;;
57826;SDS011;43656;57.746;11.780;2023-04-07T00:17:49;4.68;;;2.65;;
57826;SDS011;43656;57.746;11.780;2023-04-07T00:20:14;5.35;;;2.58;;
57826;SDS011;43656;57.746;11.780;2023-04-07T00:22:40;5.75;;;2.40;;
57826;SDS011;43656;57.746;11.780;2023-04-07T00:25:05;4.95;;;2.83;;
57826;SDS011;43656;57.746;11.780;2023-04-07T00:27:31;5.20;;;2.95;;
57826;SDS011;43656;57.746;11.780;2023-04-07T00:29:57;5.95;;;2.47;;
57826;SDS011;43656;57.746;11.780;2023-04-07T00:32:22;4.38;;;2.60;;
57826;SDS011;43656;57.746;11.780;2023-04-07T00:34:47;3.92;;;2.42;;
57826;SDS011;43656;57.746;11.780;2023-04-07T00:37:13;3.40;;;2.15;;
57826;SDS011;43656;57.746;11.780;2023-04-07T00:39:38;6.55;;;2.83;;
57826;SDS011;43656;57.746;11.780;2023-04-07T00:42:03;7.50;;;2.47;;
57826;SDS011;43656;57.746;11.780;2023-04-07T00:44:32;6.93;;;2.50;;
57826;SDS011;43656;57.746;11.780;2023-04-07T00:46:58;5.05;;;2.50;;
57826;SDS011;43656;57.746;11.780;2023-04-07T00:49:24;5.18;;;2.75;;
57826;SDS011;43656;57.746;11.780;2023-04-07T00:51:52;5.05;;;2.50;;
57826;SDS011;43656;57.746;11.780;2023-04-07T00:54:19;4.07;;;2.35;;
57826;SDS011;43656;57.746;11.780;2023-04-07T00:56:45;3.50;;;2.60;;
57826;SDS011;43656;57.746;11.780;2023-04-07T00:59:11;4.45;;;2.70;;
57826;SDS011;43656;57.746;11.780;2023-04-07T01:01:43;7.57;;;2.33;;
57826;SDS011;43656;57.746;11.780;2023-04-07T01:06:43;4.47;;;2.65;;
57826;SDS011;43656;57.746;11.780;2023-04-07T01:09:18;5.25;;;2.50;;
57826;SDS011;43656;57.746;11.780;2023-04-07T01:12:04;5.03;;;2.65;;
57826;SDS011;43656;57.746;11.780;2023-04-07T01:14:39;5.50;;;2.50;;
57826;SDS011;43656;57.746;11.780;2023-04-07T01:17:09;4.78;;;2.50;;
57826;SDS011;43656;57.746;11.780;2023-04-07T01:19:39;6.65;;;2.88;;
57826;SDS011;43656;57.746;11.780;2023-04-07T01:22:11;7.05;;;2.53;;
57826;SDS011;43656;57.746;11.780;2023-04-07T01:27:48;5.13;;;2.60;;
57826;SDS011;43656;57.746;11.780;2023-04-07T01:30:13;4.43;;;2.85;;
57826;SDS011;43656;57.746;11.780;2023-04-07T01:32:40;4.65;;;2.50;;
57826;SDS011;43656;57.746;11.780;2023-04-07T01:35:10;6.20;;;2.65;;
57826;SDS011;43656;57.746;11.780;2023-04-07T01:37:37;5.00;;;2.83;;
57826;SDS011;43656;57.746;11.780;2023-04-07T01:40:03;5.20;;;2.85;;
57826;SDS011;43656;57.746;11.780;2023-04-07T01:42:31;4.32;;;2.53;;
57826;SDS011;43656;57.746;11.780;2023-04-07T01:44:58;6.80;;;2.47;;
57826;SDS011;43656;57.746;11.780;2023-04-07T01:47:26;5.72;;;2.78;;
57826;SDS011;43656;57.746;11.780;2023-04-07T01:49:55;4.88;;;2.53;;
57826;SDS011;43656;57.746;11.780;2023-04-07T01:52:23;4.88;;;3.10;;
57826;SDS011;43656;57.746;11.780;2023-04-07T01:54:50;4.57;;;2.50;;
57826;SDS011;43656;57.746;11.780;2023-04-07T01:57:16;6.28;;;2.95;;
57826;SDS011;43656;57.746;11.780;2023-04-07T01:59:41;4.30;;;2.65;;
57826;SDS011;43656;57.746;11.780;2023-04-07T02:02:07;6.25;;;2.80;;
57826;SDS011;43656;57.746;11.780;2023-04-07T02:07:28;4.55;;;2.80;;
57826;SDS011;43656;57.746;11.780;2023-04-07T02:09:59;6.57;;;2.83;;
57826;SDS011;43656;57.746;11.780;2023-04-07T02:12:28;4.28;;;2.55;;
57826;SDS011;43656;57.746;11.780;2023-04-07T02:14:55;5.22;;;2.80;;
57826;SDS011;43656;57.746;11.780;2023-04-07T02:17:23;4.85;;;2.70;;
57826;SDS011;43656;57.746;11.780;2023-04-07T02:19:49;5.28;;;2.40;;
57826;SDS011;43656;57.746;11.780;2023-04-07T02:22:17;5.07;;;2.60;;
57826;SDS011;43656;57.746;11.780;2023-04-07T02:24:43;6.50;;;2.60;;
57826;SDS011;43656;57.746;11.780;2023-04-07T02:27:08;4.43;;;2.50;;
57826;SDS011;43656;57.746;11.780;2023-04-07T02:29:33;4.63;;;2.80;;
57826;SDS011;43656;57.746;11.780;2023-04-07T02:31:59;4.57;;;2.70;;
57826;SDS011;43656;57.746;11.780;2023-04-07T02:34:24;6.43;;;2.60;;
57826;SDS011;43656;57.746;11.780;2023-04-07T02:36:50;3.90;;;2.47;;
57826;SDS011;43656;57.746;11.780;2023-04-07T02:39:16;4.72;;;2.50;;
57826;SDS011;43656;57.746;11.780;2023-04-07T02:41:41;4.53;;;2.17;;
57826;SDS011;43656;57.746;11.780;2023-04-07T02:44:06;5.00;;;2.50;;
57826;SDS011;43656;57.746;11.780;2023-04-07T02:46:32;7.30;;;2.60;;
57826;SDS011;43656;57.746;11.780;2023-04-07T02:48:57;4.75;;;2.53;;
57826;SDS011;43656;57.746;11.780;2023-04-07T02:51:23;5.20;;;2.25;;
57826;SDS011;43656;57.746;11.780;2023-04-07T02:53:48;4.20;;;2.30;;
57826;SDS011;43656;57.746;11.780;2023-04-07T02:56:14;4.28;;;2.35;;
57826;SDS011;43656;57.746;11.780;2023-04-07T02:58:40;4.13;;;2.55;;
57826;SDS011;43656;57.746;11.780;2023-04-07T03:01:05;4.28;;;2.35;;
57826;SDS011;43656;57.746;11.780;2023-04-07T03:03:30;4.35;;;2.60;;
57826;SDS011;43656;57.746;11.780;2023-04-07T03:05:56;4.78;;;2.70;;
57826;SDS011;43656;57.746;11.780;2023-04-07T03:08:21;6.72;;;2.88;;
57826;SDS011;43656;57.746;11.780;2023-04-07T03:10:47;4.85;;;2.30;;
57826;SDS011;43656;57.746;11.780;2023-04-07T03:13:12;6.85;;;2.45;;
57826;SDS011;43656;57.746;11.780;2023-04-07T03:15:41;4.88;;;2.50;;
57826;SDS011;43656;57.746;11.780;2023-04-07T03:18:07;3.72;;;2.30;;
57826;SDS011;43656;57.746;11.780;2023-04-07T03:20:33;5.85;;;2.95;;
57826;SDS011;43656;57.746;11.780;2023-04-07T03:22:58;4.40;;;2.53;;
57826;SDS011;43656;57.746;11.780;2023-04-07T03:25:24;5.28;;;2.65;;
57826;SDS011;43656;57.746;11.780;2023-04-07T03:27:50;6.68;;;2.50;;
57826;SDS011;43656;57.746;11.780;2023-04-07T03:30:16;4.82;;;2.38;;
57826;SDS011;43656;57.746;11.780;2023-04-07T03:32:41;5.35;;;2.70;;
57826;SDS011;43656;57.746;11.780;2023-04-07T03:35:07;9.68;;;2.90;;
57826;SDS011;43656;57.746;11.780;2023-04-07T03:37:32;4.28;;;2.38;;
57826;SDS011;43656;57.746;11.780;2023-04-07T03:39:58;6.40;;;2.50;;
57826;SDS011;43656;57.746;11.780;2023-04-07T03:42:23;5.40;;;2.15;;
57826;SDS011;43656;57.746;11.780;2023-04-07T03:44:48;4.82;;;2.42;;
57826;SDS011;43656;57.746;11.780;2023-04-07T03:47:14;4.03;;;2.20;;
57826;SDS011;43656;57.746;11.780;2023-04-07T03:49:39;5.20;;;2.50;;
57826;SDS011;43656;57.746;11.780;2023-04-07T03:52:04;5.97;;;2.58;;
57826;SDS011;43656;57.746;11.780;2023-04-07T03:54:30;5.10;;;2.60;;
57826;SDS011;43656;57.746;11.780;2023-04-07T03:56:55;4.63;;;2.50;;
57826;SDS011;43656;57.746;11.780;2023-04-07T03:59:21;4.72;;;2.22;;
57826;SDS011;43656;57.746;11.780;2023-04-07T04:01:47;5.32;;;2.53;;
57826;SDS011;43656;57.746;11.780;2023-04-07T04:04:12;6.65;;;2.60;;
57826;SDS011;43656;57.746;11.780;2023-04-07T04:06:38;5.63;;;3.00;;
57826;SDS011;43656;57.746;11.780;2023-04-07T04:09:03;4.93;;;2.58;;
57826;SDS011;43656;57.746;11.780;2023-04-07T04:11:28;5.32;;;2.60;;
57826;SDS011;43656;57.746;11.780;2023-04-07T04:13:55;4.90;;;2.40;;
57826;SDS011;43656;57.746;11.780;2023-04-07T04:16:21;5.80;;;2.60;;
57826;SDS011;43656;57.746;11.780;2023-04-07T04:18:46;4.07;;;2.35;;
57826;SDS011;43656;57.746;11.780;2023-04-07T04:21:12;5.50;;;2.88;;
57826;SDS011;43656;57.746;11.780;2023-04-07T04:23:37;4.63;;;2.60;;
57826;SDS011;43656;57.746;11.780;2023-04-07T04:26:02;5.57;;;2.78;;
57826;SDS011;43656;57.746;11.780;2023-04-07T04:28:28;3.03;;;2.45;;
57826;SDS011;43656;57.746;11.780;2023-04-07T04:30:54;5.20;;;2.45;;
57826;SDS011;43656;57.746;11.780;2023-04-07T04:33:19;5.18;;;2.38;;
57826;SDS011;43656;57.746;11.780;2023-04-07T04:35:45;6.15;;;2.40;;
57826;SDS011;43656;57.746;11.780;2023-04-07T04:38:11;7.50;;;2.72;;
57826;SDS011;43656;57.746;11.780;2023-04-07T04:40:36;5.40;;;2.50;;
57826;SDS011;43656;57.746;11.780;2023-04-07T04:43:02;5.95;;;2.85;;
57826;SDS011;43656;57.746;11.780;2023-04-07T04:45:31;4.18;;;2.45;;
57826;SDS011;43656;57.746;11.780;2023-04-07T04:47:56;7.97;;;2.63;;
57826;SDS011;43656;57.746;11.780;2023-04-07T04:50:22;4.28;;;2.85;;
57826;SDS011;43656;57.746;11.780;2023-04-07T04:52:47;2.97;;;2.50;;
57826;SDS011;43656;57.746;11.780;2023-04-07T04:55:13;4.75;;;2.60;;
57826;SDS011;43656;57.746;11.780;2023-04-07T04:57:38;4.40;;;2.60;;
57826;SDS011;43656;57.746;11.780;2023-04-07T05:00:04;4.80;;;2.78;;
57826;SDS011;43656;57.746;11.780;2023-04-07T05:02:31;4.50;;;2.42;;
57826;SDS011;43656;57.746;11.780;2023-04-07T05:04:57;4.28;;;2.42;;
57826;SDS011;43656;57.746;11.780;2023-04-07T05:07:23;5.88;;;2.28;;
57826;SDS011;43656;57.746;11.780;2023-04-07T05:09:48;3.45;;;2.22;;
57826;SDS011;43656;57.746;11.780;2023-04-07T05:12:14;4.70;;;2.40;;
57826;SDS011;43656;57.746;11.780;2023-04-07T05:14:40;7.20;;;2.25;;
57826;SDS011;43656;57.746;11.780;2023-04-07T05:17:05;6.13;;;2.70;;
57826;SDS011;43656;57.746;11.780;2023-04-07T05:19:31;6.22;;;2.63;;
57826;SDS011;43656;57.746;11.780;2023-04-07T05:21:57;5.45;;;2.67;;
57826;SDS011;43656;57.746;11.780;2023-04-07T05:24:24;5.13;;;2.40;;
57826;SDS011;43656;57.746;11.780;2023-04-07T05:26:52;4.68;;;2.60;;
57826;SDS011;43656;57.746;11.780;2023-04-07T05:29:18;4.68;;;2.95;;
57826;SDS011;43656;57.746;11.780;2023-04-07T05:31:43;5.10;;;2.50;;
57826;SDS011;43656;57.746;11.780;2023-04-07T05:34:09;3.13;;;2.38;;
57826;SDS011;43656;57.746;11.780;2023-04-07T05:36:34;6.40;;;2.97;;
57826;SDS011;43656;57.746;11.780;2023-04-07T05:39:00;4.65;;;3.03;;
57826;SDS011;43656;57.746;11.780;2023-04-07T05:41:25;3.15;;;2.25;;
57826;SDS011;43656;57.746;11.780;2023-04-07T05:43:51;5.28;;;2.53;;
57826;SDS011;43656;57.746;11.780;2023-04-07T05:46:16;4.85;;;2.38;;
57826;SDS011;43656;57.746;11.780;2023-04-07T05:48:42;5.47;;;2.53;;
57826;SDS011;43656;57.746;11.780;2023-04-07T05:51:07;4.30;;;2.30;;
57826;SDS011;43656;57.746;11.780;2023-04-07T05:53:33;5.93;;;2.40;;
57826;SDS011;43656;57.746;11.780;2023-04-07T05:55:58;3.95;;;2.20;;
57826;SDS011;43656;57.746;11.780;2023-04-07T05:58:23;6.07;;;2.10;;
57826;SDS011;43656;57.746;11.780;2023-04-07T06:00:49;5.45;;;2.55;;
57826;SDS011;43656;57.746;11.780;2023-04-07T06:03:15;5.68;;;2.50;;
57826;SDS011;43656;57.746;11.780;2023-04-07T06:05:40;3.35;;;1.95;;
57826;SDS011;43656;57.746;11.780;2023-04-07T06:08:08;4.32;;;2.20;;
57826;SDS011;43656;57.746;11.780;2023-04-07T06:10:34;5.32;;;2.50;;
57826;SDS011;43656;57.746;11.780;2023-04-07T06:13:00;3.88;;;2.47;;
57826;SDS011;43656;57.746;11.780;2023-04-07T06:15:26;5.00;;;2.40;;
57826;SDS011;43656;57.746;11.780;2023-04-07T06:17:51;5.38;;;2.42;;
57826;SDS011;43656;57.746;11.780;2023-04-07T06:20:16;3.92;;;2.10;;
57826;SDS011;43656;57.746;11.780;2023-04-07T06:22:42;5.75;;;2.28;;
57826;SDS011;43656;57.746;11.780;2023-04-07T06:25:07;4.07;;;2.15;;
57826;SDS011;43656;57.746;11.780;2023-04-07T06:27:34;4.53;;;2.38;;
57826;SDS011;43656;57.746;11.780;2023-04-07T06:30:00;5.07;;;1.95;;
57826;SDS011;43656;57.746;11.780;2023-04-07T06:32:25;3.22;;;2.20;;
57826;SDS011;43656;57.746;11.780;2023-04-07T06:34:50;4.63;;;1.95;;
57826;SDS011;43656;57.746;11.780;2023-04-07T06:37:16;3.83;;;2.42;;
57826;SDS011;43656;57.746;11.780;2023-04-07T06:39:42;5.57;;;2.20;;
57826;SDS011;43656;57.746;11.780;2023-04-07T06:42:07;5.38;;;2.20;;
57826;SDS011;43656;57.746;11.780;2023-04-07T06:44:33;4.10;;;1.98;;
57826;SDS011;43656;57.746;11.780;2023-04-07T06:46:58;3.58;;;2.20;;
57826;SDS011;43656;57.746;11.780;2023-04-07T06:49:24;4.72;;;2.40;;
57826;SDS011;43656;57.746;11.780;2023-04-07T06:51:49;8.45;;;3.15;;
57826;SDS011;43656;57.746;11.780;2023-04-07T06:54:14;4.63;;;2.22;;
57826;SDS011;43656;57.746;11.780;2023-04-07T06:56:40;6.30;;;2.20;;
57826;SDS011;43656;57.746;11.780;2023-04-07T06:59:06;6.70;;;2.30;;
57826;SDS011;43656;57.746;11.780;2023-04-07T07:01:32;5.50;;;2.35;;
57826;SDS011;43656;57.746;11.780;2023-04-07T07:03:58;4.30;;;2.40;;
57826;SDS011;43656;57.746;11.780;2023-04-07T07:06:24;3.90;;;2.20;;
57826;SDS011;43656;57.746;11.780;2023-04-07T07:08:51;4.53;;;2.22;;
57826;SDS011;43656;57.746;11.780;2023-04-07T07:11:17;3.35;;;2.05;;
57826;SDS011;43656;57.746;11.780;2023-04-07T07:13:42;4.13;;;2.20;;
57826;SDS011;43656;57.746;11.780;2023-04-07T07:16:09;6.30;;;2.03;;
57826;SDS011;43656;57.746;11.780;2023-04-07T07:18:34;3.30;;;2.00;;
57826;SDS011;43656;57.746;11.780;2023-04-07T07:21:00;4.30;;;2.40;;
57826;SDS011;43656;57.746;11.780;2023-04-07T07:23:26;6.75;;;2.53;;
57826;SDS011;43656;57.746;11.780;2023-04-07T07:25:51;4.22;;;2.15;;
57826;SDS011;43656;57.746;11.780;2023-04-07T07:28:17;11.82;;;6.30;;
57826;SDS011;43656;57.746;11.780;2023-04-07T07:30:43;6.57;;;2.97;;
57826;SDS011;43656;57.746;11.780;2023-04-07T07:33:08;8.60;;;3.00;;
57826;SDS011;43656;57.746;11.780;2023-04-07T07:35:34;12.52;;;10.10;;
57826;SDS011;43656;57.746;11.780;2023-04-07T07:38:01;7.25;;;2.90;;
57826;SDS011;43656;57.746;11.780;2023-04-07T07:40:27;8.88;;;6.00;;
57826;SDS011;43656;57.746;11.780;2023-04-07T07:42:52;5.10;;;2.40;;
57826;SDS011;43656;57.746;11.780;2023-04-07T07:45:18;4.45;;;2.03;;
57826;SDS011;43656;57.746;11.780;2023-04-07T07:47:43;3.83;;;1.90;;
57826;SDS011;43656;57.746;11.780;2023-04-07T07:50:09;3.83;;;2.05;;
57826;SDS011;43656;57.746;11.780;2023-04-07T07:52:34;6.07;;;1.77;;
57826;SDS011;43656;57.746;11.780;2023-04-07T07:55:00;4.75;;;2.13;;
57826;SDS011;43656;57.746;11.780;2023-04-07T07:57:25;3.97;;;2.08;;
57826;SDS011;43656;57.746;11.780;2023-04-07T07:59:51;2.90;;;1.90;;
57826;SDS011;43656;57.746;11.780;2023-04-07T08:02:17;4.88;;;2.42;;
57826;SDS011;43656;57.746;11.780;2023-04-07T08:04:42;3.08;;;1.83;;
57826;SDS011;43656;57.746;11.780;2023-04-07T08:07:08;5.57;;;1.80;;
57826;SDS011;43656;57.746;11.780;2023-04-07T08:09:35;4.97;;;2.15;;
57826;SDS011;43656;57.746;11.780;2023-04-07T08:12:01;3.58;;;1.60;;
57826;SDS011;43656;57.746;11.780;2023-04-07T08:14:27;4.10;;;1.60;;
57826;SDS011;43656;57.746;11.780;2023-04-07T08:16:53;5.28;;;1.67;;
57826;SDS011;43656;57.746;11.780;2023-04-07T08:19:19;4.30;;;1.52;;
57826;SDS011;43656;57.746;11.780;2023-04-07T08:21:45;5.43;;;2.33;;
57826;SDS011;43656;57.746;11.780;2023-04-07T08:24:10;5.82;;;2.10;;
57826;SDS011;43656;57.746;11.780;2023-04-07T08:26:36;3.67;;;1.83;;
57826;SDS011;43656;57.746;11.780;2023-04-07T08:29:02;2.70;;;1.80;;
57826;SDS011;43656;57.746;11.780;2023-04-07T08:31:27;2.60;;;1.50;;
57826;SDS011;43656;57.746;11.780;2023-04-07T08:33:53;5.38;;;1.80;;
57826;SDS011;43656;57.746;11.780;2023-04-07T08:36:22;6.85;;;2.10;;
57826;SDS011;43656;57.746;11.780;2023-04-07T08:38:52;4.25;;;1.60;;
57826;SDS011;43656;57.746;11.780;2023-04-07T08:41:23;2.63;;;1.95;;
57826;SDS011;43656;57.746;11.780;2023-04-07T08:43:55;3.92;;;1.70;;
57826;SDS011;43656;57.746;11.780;2023-04-07T08:46:22;4.13;;;1.55;;
57826;SDS011;43656;57.746;11.780;2023-04-07T08:48:50;4.85;;;2.13;;
57826;SDS011;43656;57.746;11.780;2023-04-07T08:51:17;2.53;;;1.30;;
57826;SDS011;43656;57.746;11.780;2023-04-07T08:53:52;4.38;;;1.50;;
57826;SDS011;43656;57.746;11.780;2023-04-07T08:56:22;3.15;;;1.80;;
57826;SDS011;43656;57.746;11.780;2023-04-07T08:58:48;4.90;;;1.50;;
57826;SDS011;43656;57.746;11.780;2023-04-07T09:01:14;3.03;;;1.40;;
57826;SDS011;43656;57.746;11.780;2023-04-07T09:03:41;4.10;;;1.75;;
57826;SDS011;43656;57.746;11.780;2023-04-07T09:06:09;5.32;;;2.97;;
57826;SDS011;43656;57.746;11.780;2023-04-07T09:08:37;5.25;;;1.90;;
57826;SDS011;43656;57.746;11.780;2023-04-07T09:11:02;3.72;;;1.90;;
57826;SDS011;43656;57.746;11.780;2023-04-07T09:13:28;2.45;;;1.48;;
57826;SDS011;43656;57.746;11.780;2023-04-07T09:15:55;3.97;;;1.60;;
57826;SDS011;43656;57.746;11.780;2023-04-07T09:18:21;3.53;;;1.90;;
57826;SDS011;43656;57.746;11.780;2023-04-07T09:21:03;3.47;;;2.00;;
57826;SDS011;43656;57.746;11.780;2023-04-07T09:25:56;3.65;;;2.00;;
57826;SDS011;43656;57.746;11.780;2023-04-07T09:28:24;2.88;;;1.70;;
57826;SDS011;43656;57.746;11.780;2023-04-07T09:30:53;2.22;;;1.40;;
57826;SDS011;43656;57.746;11.780;2023-04-07T09:33:28;3.30;;;1.48;;
57826;SDS011;43656;57.746;11.780;2023-04-07T09:35:54;3.67;;;1.50;;
57826;SDS011;43656;57.746;11.780;2023-04-07T09:38:20;3.45;;;1.40;;
57826;SDS011;43656;57.746;11.780;2023-04-07T09:40:46;4.75;;;1.50;;
57826;SDS011;43656;57.746;11.780;2023-04-07T09:43:15;2.22;;;1.48;;
57826;SDS011;43656;57.746;11.780;2023-04-07T09:45:42;3.72;;;1.80;;
57826;SDS011;43656;57.746;11.780;2023-04-07T09:48:17;2.33;;;1.40;;
57826;SDS011;43656;57.746;11.780;2023-04-07T09:50:44;2.53;;;1.60;;
57826;SDS011;43656;57.746;11.780;2023-04-07T09:53:13;4.40;;;1.55;;
57826;SDS011;43656;57.746;11.780;2023-04-07T09:55:39;12.10;;;9.15;;
57826;SDS011;43656;57.746;11.780;2023-04-07T09:58:05;5.32;;;2.58;;
57826;SDS011;43656;57.746;11.780;2023-04-07T10:00:32;3.25;;;1.58;;
57826;SDS011;43656;57.746;11.780;2023-04-07T10:02:59;3.17;;;1.48;;
57826;SDS011;43656;57.746;11.780;2023-04-07T10:05:25;5.28;;;2.70;;
57826;SDS011;43656;57.746;11.780;2023-04-07T10:07:51;3.78;;;2.10;;
57826;SDS011;43656;57.746;11.780;2023-04-07T10:10:18;3.45;;;1.35;;
57826;SDS011;43656;57.746;11.780;2023-04-07T10:12:43;2.90;;;1.38;;
57826;SDS011;43656;57.746;11.780;2023-04-07T10:15:12;1.75;;;1.25;;
57826;SDS011;43656;57.746;11.780;2023-04-07T10:17:44;3.65;;;1.88;;
57826;SDS011;43656;57.746;11.780;2023-04-07T10:20:13;2.75;;;0.80;;
57826;SDS011;43656;57.746;11.780;2023-04-07T10:22:41;1.63;;;1.10;;
57826;SDS011;43656;57.746;11.780;2023-04-07T10:25:10;3.58;;;1.20;;
57826;SDS011;43656;57.746;11.780;2023-04-07T10:27:39;2.83;;;1.42;;
57826;SDS011;43656;57.746;11.780;2023-04-07T10:30:24;2.17;;;1.10;;
57826;SDS011;43656;57.746;11.780;2023-04-07T10:32:52;3.38;;;1.25;;
57826;SDS011;43656;57.746;11.780;2023-04-07T10:35:19;2.75;;;1.20;;
57826;SDS011;43656;57.746;11.780;2023-04-07T10:40:35;4.50;;;1.00;;
57826;SDS011;43656;57.746;11.780;2023-04-07T10:43:01;2.22;;;1.00;;
57826;SDS011;43656;57.746;11.780;2023-04-07T10:48:18;2.88;;;1.02;;
57826;SDS011;43656;57.746;11.780;2023-04-07T10:50:45;2.22;;;0.70;;
57826;SDS011;43656;57.746;11.780;2023-04-07T10:53:31;2.65;;;0.80;;
57826;SDS011;43656;57.746;11.780;2023-04-07T10:55:57;3.20;;;1.10;;
57826;SDS011;43656;57.746;11.780;2023-04-07T11:03:34;1.05;;;0.90;;
57826;SDS011;43656;57.746;11.780;2023-04-07T11:06:04;1.85;;;0.75;;
57826;SDS011;43656;57.746;11.780;2023-04-07T11:08:34;1.67;;;0.80;;
57826;SDS011;43656;57.746;11.780;2023-04-07T11:11:01;11.95;;;7.63;;
57826;SDS011;43656;57.746;11.780;2023-04-07T11:13:27;2.38;;;0.70;;
57826;SDS011;43656;57.746;11.780;2023-04-07T11:15:53;3.55;;;2.05;;
57826;SDS011;43656;57.746;11.780;2023-04-07T11:18:19;1.40;;;0.90;;
57826;SDS011;43656;57.746;11.780;2023-04-07T11:20:53;0.70;;;0.52;;
57826;SDS011;43656;57.746;11.780;2023-04-07T11:23:22;1.40;;;0.70;;
57826;SDS011;43656;57.746;11.780;2023-04-07T11:25:49;1.23;;;0.75;;
57826;SDS011;43656;57.746;11.780;2023-04-07T11:28:17;2.03;;;0.68;;
57826;SDS011;43656;57.746;11.780;2023-04-07T11:30:47;1.95;;;0.60;;
57826;SDS011;43656;57.746;11.780;2023-04-07T11:33:16;0.70;;;0.55;;
57826;SDS011;43656;57.746;11.780;2023-04-07T11:35:53;1.25;;;0.60;;
57826;SDS011;43656;57.746;11.780;2023-04-07T11:38:27;1.20;;;0.73;;
57826;SDS011;43656;57.746;11.780;2023-04-07T11:40:54;1.33;;;0.80;;
57826;SDS011;43656;57.746;11.780;2023-04-07T11:43:24;1.80;;;0.90;;
57826;SDS011;43656;57.746;11.780;2023-04-07T11:48:37;2.60;;;0.70;;
57826;SDS011;43656;57.746;11.780;2023-04-07T11:51:04;2.92;;;0.65;;
57826;SDS011;43656;57.746;11.780;2023-04-07T11:53:31;1.50;;;0.80;;
57826;SDS011;43656;57.746;11.780;2023-04-07T11:56:02;1.48;;;0.85;;
57826;SDS011;43656;57.746;11.780;2023-04-07T11:58:45;1.00;;;0.60;;
57826;SDS011;43656;57.746;11.780;2023-04-07T12:01:14;1.55;;;0.80;;
57826;SDS011;43656;57.746;11.780;2023-04-07T12:03:53;1.40;;;0.80;;
57826;SDS011;43656;57.746;11.780;2023-04-07T12:06:30;1.35;;;0.70;;
57826;SDS011;43656;57.746;11.780;2023-04-07T12:08:59;1.38;;;0.52;;
57826;SDS011;43656;57.746;11.780;2023-04-07T12:11:25;1.77;;;0.60;;
57826;SDS011;43656;57.746;11.780;2023-04-07T12:13:51;1.23;;;0.70;;
57826;SDS011;43656;57.746;11.780;2023-04-07T12:16:17;1.10;;;0.60;;
57826;SDS011;43656;57.746;11.780;2023-04-07T12:18:44;1.75;;;0.70;;
57826;SDS011;43656;57.746;11.780;2023-04-07T12:21:10;3.03;;;0.85;;
57826;SDS011;43656;57.746;11.780;2023-04-07T12:23:35;1.83;;;0.73;;
57826;SDS011;43656;57.746;11.780;2023-04-07T12:26:00;1.00;;;0.63;;
57826;SDS011;43656;57.746;11.780;2023-04-07T12:28:26;1.45;;;0.70;;
57826;SDS011;43656;57.746;11.780;2023-04-07T12:30:52;1.45;;;0.55;;
57826;SDS011;43656;57.746;11.780;2023-04-07T12:33:18;3.03;;;0.77;;
57826;SDS011;43656;57.746;11.780;2023-04-07T12:35:43;1.85;;;0.95;;
57826;SDS011;43656;57.746;11.780;2023-04-07T12:38:09;3.45;;;0.88;;
57826;SDS011;43656;57.746;11.780;2023-04-07T12:40:34;1.15;;;0.77;;
57826;SDS011;43656;57.746;11.780;2023-04-07T12:43:00;1.85;;;0.60;;
57826;SDS011;43656;57.746;11.780;2023-04-07T12:45:26;1.65;;;0.70;;
57826;SDS011;43656;57.746;11.780;2023-04-07T12:47:54;1.75;;;0.60;;
57826;SDS011;43656;57.746;11.780;2023-04-07T12:50:19;1.10;;;0.60;;
57826;SDS011;43656;57.746;11.780;2023-04-07T12:52:45;1.20;;;0.70;;
57826;SDS011;43656;57.746;11.780;2023-04-07T12:55:12;0.85;;;0.55;;
57826;SDS011;43656;57.746;11.780;2023-04-07T12:57:38;2.05;;;0.80;;
57826;SDS011;43656;57.746;11.780;2023-04-07T13:00:04;1.33;;;0.63;;
57826;SDS011;43656;57.746;11.780;2023-04-07T13:02:29;1.33;;;0.82;;
57826;SDS011;43656;57.746;11.780;2023-04-07T13:04:55;0.98;;;0.50;;
57826;SDS011;43656;57.746;11.780;2023-04-07T13:07:21;1.77;;;0.75;;
57826;SDS011;43656;57.746;11.780;2023-04-07T13:09:46;1.63;;;0.60;;
57826;SDS011;43656;57.746;11.780;2023-04-07T13:12:11;1.48;;;0.75;;
57826;SDS011;43656;57.746;11.780;2023-04-07T13:14:38;2.85;;;1.02;;
57826;SDS011;43656;57.746;11.780;2023-04-07T13:17:05;1.33;;;0.70;;
57826;SDS011;43656;57.746;11.780;2023-04-07T13:19:32;1.48;;;0.70;;
57826;SDS011;43656;57.746;11.780;2023-04-07T13:21:57;1.80;;;0.68;;
57826;SDS011;43656;57.746;11.780;2023-04-07T13:24:23;1.70;;;0.90;;
57826;SDS011;43656;57.746;11.780;2023-04-07T13:26:49;2.03;;;0.65;;
57826;SDS011;43656;57.746;11.780;2023-04-07T13:29:15;1.33;;;0.75;;
57826;SDS011;43656;57.746;11.780;2023-04-07T13:31:41;1.13;;;0.60;;
57826;SDS011;43656;57.746;11.780;2023-04-07T13:34:06;0.85;;;0.75;;
57826;SDS011;43656;57.746;11.780;2023-04-07T13:36:31;1.45;;;0.68;;
57826;SDS011;43656;57.746;11.780;2023-04-07T13:38:57;2.85;;;0.60;;
57826;SDS011;43656;57.746;11.780;2023-04-07T13:41:23;1.23;;;0.70;;
57826;SDS011;43656;57.746;11.780;2023-04-07T13:43:48;2.05;;;0.77;;
57826;SDS011;43656;57.746;11.780;2023-04-07T13:46:14;0.95;;;0.70;;
57826;SDS011;43656;57.746;11.780;2023-04-07T13:48:41;0.82;;;0.68;;
57826;SDS011;43656;57.746;11.780;2023-04-07T13:51:08;1.02;;;0.65;;
57826;SDS011;43656;57.746;11.780;2023-04-07T13:53:34;2.83;;;0.68;;
57826;SDS011;43656;57.746;11.780;2023-04-07T13:56:00;0.88;;;0.70;;
57826;SDS011;43656;57.746;11.780;2023-04-07T13:58:25;0.98;;;0.70;;
57826;SDS011;43656;57.746;11.780;2023-04-07T14:00:51;1.10;;;0.70;;
57826;SDS011;43656;57.746;11.780;2023-04-07T14:03:16;1.50;;;0.70;;
57826;SDS011;43656;57.746;11.780;2023-04-07T14:05:42;3.05;;;0.80;;
57826;SDS011;43656;57.746;11.780;2023-04-07T14:08:07;1.30;;;0.77;;
57826;SDS011;43656;57.746;11.780;2023-04-07T14:10:32;1.00;;;0.70;;
57826;SDS011;43656;57.746;11.780;2023-04-07T14:12:59;1.40;;;0.65;;
57826;SDS011;43656;57.746;11.780;2023-04-07T14:15:25;1.08;;;0.70;;
57826;SDS011;43656;57.746;11.780;2023-04-07T14:17:51;2.13;;;1.00;;
57826;SDS011;43656;57.746;11.780;2023-04-07T14:20:17;2.10;;;0.77;;
57826;SDS011;43656;57.746;11.780;2023-04-07T14:22:42;2.22;;;0.77;;
57826;SDS011;43656;57.746;11.780;2023-04-07T14:25:09;2.38;;;0.80;;
57826;SDS011;43656;57.746;11.780;2023-04-07T14:27:35;0.90;;;0.60;;
57826;SDS011;43656;57.746;11.780;2023-04-07T14:30:01;1.00;;;0.70;;
57826;SDS011;43656;57.746;11.780;2023-04-07T14:32:27;1.25;;;0.68;;
57826;SDS011;43656;57.746;11.780;2023-04-07T14:34:53;0.80;;;0.70;;
57826;SDS011;43656;57.746;11.780;2023-04-07T14:37:19;1.75;;;0.73;;
57826;SDS011;43656;57.746;11.780;2023-04-07T14:39:50;1.33;;;0.77;;
57826;SDS011;43656;57.746;11.780;2023-04-07T14:42:16;1.67;;;0.82;;
57826;SDS011;43656;57.746;11.780;2023-04-07T14:44:42;1.92;;;0.90;;
57826;SDS011;43656;57.746;11.780;2023-04-07T14:47:07;1.38;;;0.70;;
57826;SDS011;43656;57.746;11.780;2023-04-07T14:49:32;0.90;;;0.60;;
57826;SDS011;43656;57.746;11.780;2023-04-07T14:51:58;2.63;;;1.00;;
57826;SDS011;43656;57.746;11.780;2023-04-07T14:54:24;1.05;;;0.60;;